createdAt,value
2017-07-10T00:01:48.313Z,18.57
2017-07-10T00:04:17.654Z,17.70
2017-07-10T00:06:45.994Z,17.77
2017-07-10T00:09:15.502Z,17.03
2017-07-10T00:11:44.806Z,16.77
2017-07-10T00:14:14.593Z,19.50
2017-07-10T00:16:43.350Z,17.70
2017-07-10T00:19:12.072Z,17.97
2017-07-10T00:21:41.824Z,18.10
2017-07-10T00:24:10.061Z,19.70
2017-07-10T00:26:38.712Z,17.57
2017-07-10T00:29:07.044Z,20.80
2017-07-10T00:31:35.226Z,18.57
2017-07-10T00:34:03.822Z,20.07
2017-07-10T00:36:32.817Z,20.00
2017-07-10T00:39:00.994Z,20.43
2017-07-10T00:41:29.706Z,20.23
2017-07-10T00:43:58.556Z,22.10
2017-07-10T00:46:27.853Z,18.60
2017-07-10T00:48:57.498Z,19.33
2017-07-10T00:51:26.141Z,19.10
2017-07-10T00:53:54.366Z,19.03
2017-07-10T00:56:23.248Z,20.53
2017-07-10T00:58:52.342Z,20.40
2017-07-10T01:01:21.225Z,19.07
2017-07-10T01:03:49.983Z,20.37
2017-07-10T01:06:19.509Z,21.40
2017-07-10T01:08:48.909Z,21.30
2017-07-10T01:11:17.127Z,20.80
2017-07-10T01:13:46.058Z,19.50
2017-07-10T01:16:15.001Z,20.53
2017-07-10T01:18:43.558Z,20.87
2017-07-10T01:21:12.350Z,19.47
2017-07-10T01:23:41.240Z,20.40
2017-07-10T01:26:10.536Z,19.77
2017-07-10T01:28:38.889Z,21.10
2017-07-10T01:31:07.736Z,19.60
2017-07-10T01:33:35.942Z,19.10
2017-07-10T01:36:04.777Z,21.30
2017-07-10T01:38:34.149Z,19.63
2017-07-10T01:41:02.768Z,20.77
2017-07-10T01:43:32.222Z,21.90
2017-07-10T01:46:00.860Z,21.23
2017-07-10T01:48:30.218Z,20.33
2017-07-10T01:50:58.610Z,20.03
2017-07-10T01:53:26.793Z,20.53
2017-07-10T01:55:55.402Z,19.57
2017-07-10T01:58:24.891Z,21.20
2017-07-10T02:00:54.293Z,21.40
2017-07-10T02:03:22.457Z,20.60
2017-07-10T02:05:51.387Z,19.57
2017-07-10T02:08:19.605Z,19.10
2017-07-10T02:10:48.218Z,21.47
2017-07-10T02:13:17.016Z,23.00
2017-07-10T02:15:46.569Z,21.97
2017-07-10T02:18:14.829Z,19.20
2017-07-10T02:20:43.713Z,19.67
2017-07-10T02:23:12.428Z,20.63
2017-07-10T02:25:41.334Z,20.40
2017-07-10T02:28:10.418Z,20.47
2017-07-10T02:30:38.968Z,19.00
2017-07-10T02:33:07.145Z,19.33
2017-07-10T02:35:36.799Z,19.83
2017-07-10T02:38:04.969Z,17.83
2017-07-10T02:40:33.848Z,20.57
2017-07-10T02:43:02.538Z,19.37
2017-07-10T02:45:31.301Z,19.80
2017-07-10T02:47:59.453Z,19.77
2017-07-10T02:50:28.296Z,19.83
2017-07-10T02:52:56.891Z,19.40
2017-07-10T02:55:25.638Z,20.50
2017-07-10T02:57:55.136Z,19.50
2017-07-10T03:00:24.783Z,21.80
2017-07-10T03:02:53.777Z,21.60
2017-07-10T03:05:22.612Z,19.93
2017-07-10T03:07:51.406Z,18.73
2017-07-10T03:10:20.017Z,19.93
2017-07-10T03:12:50.337Z,19.37
2017-07-10T03:15:19.916Z,22.33
2017-07-10T03:17:48.529Z,20.43
2017-07-10T03:20:16.865Z,21.17
2017-07-10T03:22:45.987Z,22.13
2017-07-10T03:25:14.830Z,19.87
2017-07-10T03:27:44.702Z,20.07
2017-07-10T03:30:14.166Z,20.17
2017-07-10T03:32:42.706Z,19.20
2017-07-10T03:35:12.201Z,19.57
2017-07-10T03:37:41.837Z,19.10
2017-07-10T03:40:10.829Z,19.00
2017-07-10T03:42:39.145Z,18.70
2017-07-10T03:45:07.981Z,17.83
2017-07-10T03:47:37.629Z,19.30
2017-07-10T03:50:06.769Z,19.27
2017-07-10T03:52:35.233Z,19.47
2017-07-10T03:55:03.970Z,18.27
2017-07-10T03:57:32.858Z,17.33
2017-07-10T04:00:01.650Z,18.70
2017-07-10T04:02:30.509Z,18.43
2017-07-10T04:04:59.552Z,18.40
2017-07-10T04:07:28.449Z,16.30
2017-07-10T04:09:57.498Z,19.53
2017-07-10T04:12:28.329Z,18.90
2017-07-10T04:14:57.129Z,20.50
2017-07-10T04:17:27.709Z,18.87
2017-07-10T04:19:57.098Z,18.57
2017-07-10T04:22:28.342Z,20.43
2017-07-10T04:25:00.689Z,19.43
2017-07-10T04:27:29.758Z,19.07
2017-07-10T04:29:58.813Z,19.80
2017-07-10T04:32:28.669Z,19.40
2017-07-10T04:35:00.117Z,17.43
2017-07-10T04:37:29.053Z,20.80
2017-07-10T04:39:59.784Z,20.17
2017-07-10T04:42:30.865Z,18.73
2017-07-10T04:45:00.045Z,19.30
2017-07-10T04:47:29.586Z,19.90
2017-07-10T04:49:59.365Z,18.40
2017-07-10T04:52:28.136Z,19.30
2017-07-10T04:54:57.366Z,18.70
2017-07-10T04:57:26.513Z,20.20
2017-07-10T04:59:56.619Z,17.93
2017-07-10T05:15:25.427Z,17.62
2017-07-10T05:17:54.978Z,18.17
2017-07-10T05:20:23.642Z,18.17
2017-07-10T05:22:52.557Z,18.30
2017-07-10T05:25:21.227Z,17.87
2017-07-10T05:27:50.029Z,17.70
2017-07-10T05:30:19.116Z,17.58
2017-07-10T05:32:48.009Z,18.25
2017-07-10T05:35:16.965Z,17.55
2017-07-10T05:37:45.997Z,18.20
2017-07-10T05:40:14.894Z,20.83
2017-07-10T05:42:43.693Z,20.33
2017-07-10T05:45:12.416Z,21.90
2017-07-10T05:47:41.044Z,22.75
2017-07-10T05:50:09.830Z,23.10
2017-07-10T05:52:38.638Z,22.30
2017-07-10T05:55:06.797Z,21.52
2017-07-10T05:57:35.586Z,23.38
2017-07-10T06:00:04.076Z,23.42
2017-07-10T06:02:33.037Z,24.52
2017-07-10T06:05:01.794Z,24.50
2017-07-10T06:07:30.465Z,23.42
2017-07-10T06:09:59.169Z,23.48
2017-07-10T06:12:27.817Z,20.80
2017-07-10T06:14:56.622Z,17.70
2017-07-10T06:17:25.814Z,18.62
2017-07-10T06:19:54.671Z,20.30
2017-07-10T06:22:23.552Z,18.15
2017-07-10T06:24:52.164Z,18.92
2017-07-10T06:27:21.893Z,18.65
2017-07-10T06:29:50.201Z,17.58
2017-07-10T06:32:18.845Z,15.90
2017-07-10T06:34:47.561Z,15.18
2017-07-10T06:37:16.653Z,15.25
2017-07-10T06:39:45.393Z,15.23
2017-07-10T06:42:14.240Z,16.05
2017-07-10T06:44:43.277Z,15.75
2017-07-10T06:47:12.121Z,15.70
2017-07-10T06:49:40.347Z,14.15
2017-07-10T06:52:09.266Z,15.27
2017-07-10T06:54:38.030Z,15.00
2017-07-10T06:57:06.254Z,15.15
2017-07-10T06:59:35.168Z,13.95
2017-07-10T07:02:03.917Z,14.25
2017-07-10T07:04:32.733Z,15.98
2017-07-10T07:07:01.714Z,14.18
2017-07-10T07:09:30.709Z,13.38
2017-07-10T07:11:59.611Z,15.30
2017-07-10T07:14:27.957Z,16.62
2017-07-10T07:16:57.654Z,17.83
2017-07-10T07:19:27.285Z,17.62
2017-07-10T07:21:56.277Z,18.02
2017-07-10T07:24:24.982Z,17.92
2017-07-10T07:26:53.872Z,17.52
2017-07-10T07:29:22.479Z,15.68
2017-07-10T07:31:51.129Z,18.02
2017-07-10T07:34:19.713Z,17.42
2017-07-10T07:36:48.618Z,17.48
2017-07-10T07:39:17.586Z,16.52
2017-07-10T07:41:47.205Z,16.45
2017-07-10T07:44:16.642Z,16.17
2017-07-10T07:46:45.402Z,15.77
2017-07-10T07:49:14.777Z,16.70
2017-07-10T07:51:43.590Z,15.18
2017-07-10T07:54:13.001Z,16.05
2017-07-10T07:56:41.582Z,16.85
2017-07-10T07:59:10.937Z,15.27
2017-07-10T08:01:39.579Z,15.25
2017-07-10T08:04:08.338Z,14.77
2017-07-10T08:06:38.866Z,15.02
2017-07-10T08:09:07.708Z,15.15
2017-07-10T08:11:36.437Z,14.48
2017-07-10T08:14:05.106Z,15.75
2017-07-10T08:16:33.845Z,15.15
2017-07-10T08:19:03.193Z,15.43
2017-07-10T08:21:32.189Z,15.07
2017-07-10T08:24:00.934Z,15.23
2017-07-10T08:26:29.101Z,15.00
2017-07-10T08:28:57.436Z,13.50
2017-07-10T08:31:26.085Z,14.47
2017-07-10T08:33:54.994Z,15.20
2017-07-10T08:36:23.298Z,14.73
2017-07-10T08:38:51.929Z,14.55
2017-07-10T08:41:21.373Z,14.65
2017-07-10T08:43:50.222Z,15.80
2017-07-10T08:46:18.485Z,15.10
2017-07-10T08:48:47.086Z,15.23
2017-07-10T08:51:16.774Z,14.55
2017-07-10T08:53:45.346Z,15.90
2017-07-10T08:56:14.079Z,16.07
2017-07-10T08:58:42.974Z,16.42
2017-07-10T09:01:11.672Z,18.93
2017-07-10T09:03:40.457Z,16.07
2017-07-10T09:06:08.749Z,16.80
2017-07-10T09:08:36.921Z,19.05
2017-07-10T09:11:05.610Z,15.10
2017-07-10T09:13:34.415Z,17.80
2017-07-10T09:16:03.167Z,16.08
2017-07-10T09:18:32.066Z,17.00
2017-07-10T09:21:01.062Z,19.02
2017-07-10T09:23:30.057Z,18.60
2017-07-10T09:25:58.846Z,18.77
2017-07-10T09:28:27.941Z,17.20
2017-07-10T09:30:56.798Z,19.50
2017-07-10T09:33:25.552Z,18.60
2017-07-10T09:35:53.864Z,16.63
2017-07-10T09:38:22.482Z,17.60
2017-07-10T09:40:51.377Z,16.57
2017-07-10T09:43:20.473Z,17.27
2017-07-10T09:45:49.261Z,17.90
2017-07-10T09:48:18.118Z,15.30
2017-07-10T09:50:46.928Z,16.47
2017-07-10T09:53:16.354Z,17.27
2017-07-10T09:55:45.154Z,15.20
2017-07-10T09:58:13.921Z,16.60
2017-07-10T10:00:42.758Z,16.60
2017-07-10T10:03:11.493Z,17.53
2017-07-10T10:05:39.830Z,16.37
2017-07-10T10:08:08.529Z,15.23
2017-07-10T10:10:37.288Z,16.50
2017-07-10T10:13:06.186Z,17.00
2017-07-10T10:15:34.359Z,16.50
2017-07-10T10:18:02.625Z,16.10
2017-07-10T10:20:31.585Z,16.40
2017-07-10T10:23:00.932Z,15.90
2017-07-10T10:25:29.891Z,17.77
2017-07-10T10:27:58.304Z,18.53
2017-07-10T10:30:27.082Z,17.00
2017-07-10T10:32:56.130Z,16.80
2017-07-10T10:35:25.759Z,18.30
2017-07-10T10:37:54.571Z,17.17
2017-07-10T10:40:23.520Z,18.87
2017-07-10T10:42:52.557Z,16.03
2017-07-10T10:45:21.409Z,18.07
2017-07-10T10:47:49.910Z,17.43
2017-07-10T10:50:18.267Z,16.57
2017-07-10T10:52:47.057Z,14.43
2017-07-10T10:55:15.641Z,16.77
2017-07-10T10:57:43.898Z,18.07
2017-07-10T11:00:12.761Z,18.23
2017-07-10T11:02:41.321Z,17.37
2017-07-10T11:05:10.152Z,17.33
2017-07-10T11:07:39.011Z,17.80
2017-07-10T11:10:07.809Z,18.03
2017-07-10T11:12:36.790Z,18.40
2017-07-10T11:15:05.703Z,15.50
2017-07-10T11:17:33.930Z,16.43
2017-07-10T11:20:02.321Z,17.50
2017-07-10T11:22:31.577Z,17.50
2017-07-10T11:25:00.337Z,16.97
2017-07-10T11:27:29.424Z,17.27
2017-07-10T11:29:58.187Z,17.13
2017-07-10T11:32:27.609Z,17.77
2017-07-10T11:34:57.145Z,18.00
2017-07-10T11:37:25.847Z,17.60
2017-07-10T11:39:54.614Z,18.00
2017-07-10T11:42:22.926Z,18.60
2017-07-10T11:44:51.602Z,18.13
2017-07-10T11:47:20.454Z,18.60
2017-07-10T11:49:49.446Z,19.00
2017-07-10T11:52:19.025Z,17.40
2017-07-10T11:54:47.833Z,18.93
2017-07-10T11:57:17.638Z,19.97
2017-07-10T11:59:46.141Z,18.07
2017-07-10T12:02:15.829Z,17.10
2017-07-10T12:04:44.871Z,19.10
2017-07-10T12:07:13.666Z,20.87
2017-07-10T12:09:42.401Z,17.37
2017-07-10T12:12:11.093Z,17.53
2017-07-10T12:14:39.910Z,17.13
2017-07-10T12:17:08.710Z,18.37
2017-07-10T12:19:37.561Z,17.83
2017-07-10T12:22:05.741Z,17.53
2017-07-10T12:24:34.470Z,15.50
2017-07-10T12:27:03.465Z,20.50
2017-07-10T12:29:32.318Z,17.27
2017-07-10T12:32:01.306Z,17.50
2017-07-10T12:34:30.401Z,18.20
2017-07-10T12:36:59.142Z,17.63
2017-07-10T12:39:27.776Z,19.83
2017-07-10T12:41:56.574Z,18.47
2017-07-10T12:44:24.798Z,16.97
2017-07-10T12:46:53.706Z,18.50
2017-07-10T12:49:22.482Z,17.20
2017-07-10T12:51:51.079Z,18.40
2017-07-10T12:54:19.737Z,17.03
2017-07-10T12:56:48.690Z,18.47
2017-07-10T12:59:16.920Z,18.50
2017-07-10T13:01:45.686Z,17.77
2017-07-10T13:04:14.575Z,19.20
2017-07-10T13:06:43.369Z,17.67
2017-07-10T13:09:12.171Z,18.63
2017-07-10T13:11:41.121Z,18.10
2017-07-10T13:14:09.965Z,16.83
2017-07-10T13:16:38.957Z,18.17
2017-07-10T13:19:08.002Z,18.57
2017-07-10T13:21:36.780Z,17.03
2017-07-10T13:24:05.401Z,17.07
2017-07-10T13:26:35.197Z,19.07
2017-07-10T13:29:03.769Z,17.03
2017-07-10T13:31:32.703Z,18.77
2017-07-10T13:34:01.495Z,17.97
2017-07-10T13:36:30.169Z,18.43
2017-07-10T13:38:59.037Z,20.30
2017-07-10T13:41:27.982Z,19.43
2017-07-10T13:43:57.027Z,17.87
2017-07-10T13:46:25.970Z,17.40
2017-07-10T13:48:54.738Z,19.30
2017-07-10T13:51:23.426Z,17.57
2017-07-10T13:53:52.106Z,19.93
2017-07-10T13:56:21.592Z,18.53
2017-07-10T13:58:50.197Z,19.17
2017-07-10T14:01:19.642Z,17.90
2017-07-10T14:03:48.498Z,17.90
2017-07-10T14:06:17.198Z,19.30
2017-07-10T14:08:46.053Z,17.70
2017-07-10T14:11:14.391Z,17.90
2017-07-10T14:13:43.150Z,18.10
2017-07-10T14:16:11.929Z,18.77
2017-07-10T14:18:41.418Z,18.73
2017-07-10T14:21:10.025Z,19.43
2017-07-10T14:23:38.202Z,18.20
2017-07-10T14:26:06.460Z,18.07
2017-07-10T14:28:34.690Z,17.20
2017-07-10T14:31:03.377Z,17.23
2017-07-10T14:33:31.885Z,18.83
2017-07-10T14:36:00.791Z,18.93
2017-07-10T14:38:28.968Z,18.97
2017-07-10T14:40:57.778Z,18.47
2017-07-10T14:43:27.089Z,18.37
2017-07-10T14:45:55.774Z,17.20
2017-07-10T14:48:24.771Z,19.33
2017-07-10T14:50:53.569Z,17.30
2017-07-10T14:53:22.370Z,18.37
2017-07-10T14:55:51.518Z,17.30
2017-07-10T14:58:20.409Z,19.43
2017-07-10T15:00:49.354Z,18.13
2017-07-10T15:03:17.710Z,16.90
2017-07-10T15:05:46.289Z,18.50
2017-07-10T15:08:15.642Z,19.30
2017-07-10T15:10:44.433Z,17.80
2017-07-10T15:13:13.289Z,15.60
2017-07-10T15:15:41.990Z,16.27
2017-07-10T15:18:10.853Z,18.93
2017-07-10T15:20:40.378Z,17.77
2017-07-10T15:23:09.328Z,17.03
2017-07-10T15:25:38.406Z,18.53
2017-07-10T15:28:07.270Z,19.10
2017-07-10T15:30:36.313Z,18.57
2017-07-10T15:33:05.411Z,20.10
2017-07-10T15:35:33.730Z,18.77
2017-07-10T15:38:02.442Z,20.13
2017-07-10T15:40:31.398Z,18.07
2017-07-10T15:43:00.181Z,16.30
2017-07-10T15:45:29.634Z,19.10
2017-07-10T15:47:58.488Z,18.07
2017-07-10T15:50:26.654Z,18.50
2017-07-10T15:52:56.277Z,17.33
2017-07-10T15:55:25.374Z,18.70
2017-07-10T15:57:54.178Z,18.43
2017-07-10T16:00:22.985Z,18.80
2017-07-10T16:02:51.657Z,18.93
2017-07-10T16:05:20.314Z,18.37
2017-07-10T16:07:49.613Z,19.13
2017-07-10T16:10:19.341Z,20.03
2017-07-10T16:12:48.300Z,18.30
2017-07-10T16:15:16.806Z,21.10
2017-07-10T16:17:46.483Z,19.47
2017-07-10T16:20:14.661Z,19.77
2017-07-10T16:22:43.288Z,18.60
2017-07-10T16:25:12.278Z,19.80
2017-07-10T16:27:40.795Z,19.53
2017-07-10T16:30:09.482Z,19.03
2017-07-10T16:32:38.334Z,19.70
2017-07-10T16:35:07.733Z,21.33
2017-07-10T16:50:26.805Z,20.07
2017-07-10T16:52:55.662Z,20.17
2017-07-10T16:55:25.086Z,20.30
2017-07-10T16:57:54.446Z,18.23
2017-07-10T17:00:23.175Z,21.40
2017-07-10T17:02:51.349Z,19.30
2017-07-10T17:05:21.170Z,20.83
2017-07-10T17:07:49.854Z,18.10
2017-07-10T17:10:18.026Z,19.10
2017-07-10T17:12:47.845Z,18.87
2017-07-10T17:15:16.605Z,18.33
2017-07-10T17:17:44.857Z,18.60
2017-07-10T17:20:13.746Z,20.30
2017-07-10T17:22:42.297Z,20.57
2017-07-10T17:25:11.102Z,18.27
2017-07-10T17:27:40.146Z,19.50
2017-07-10T17:30:08.421Z,19.67
2017-07-10T17:32:36.595Z,18.60
2017-07-10T17:35:04.986Z,18.57
2017-07-10T17:37:34.688Z,20.00
2017-07-10T17:40:03.529Z,19.77
2017-07-10T17:42:32.681Z,19.80
2017-07-10T17:45:01.253Z,18.80
2017-07-10T17:47:29.918Z,18.87
2017-07-10T17:49:58.761Z,18.97
2017-07-10T17:52:28.243Z,20.63
2017-07-10T17:54:56.902Z,19.50
2017-07-10T17:57:25.760Z,20.53
2017-07-10T17:59:54.514Z,19.80
2017-07-10T18:02:23.405Z,18.77
2017-07-10T18:04:51.994Z,20.30
2017-07-10T18:07:20.117Z,18.57
2017-07-10T18:09:49.062Z,19.43
2017-07-10T18:12:17.362Z,19.40
2017-07-10T18:14:46.997Z,18.03
2017-07-10T18:17:16.008Z,18.40
2017-07-10T18:19:44.853Z,21.50
2017-07-10T18:22:14.377Z,18.37
2017-07-10T18:24:43.281Z,18.37
2017-07-10T18:27:11.925Z,17.70
2017-07-10T18:29:41.420Z,18.87
2017-07-10T18:32:09.682Z,18.90
2017-07-10T18:34:38.616Z,19.10
2017-07-10T18:37:07.926Z,19.00
2017-07-10T18:39:36.649Z,19.27
2017-07-10T18:42:05.496Z,19.37
2017-07-10T18:44:34.809Z,20.17
2017-07-10T18:47:03.489Z,20.30
2017-07-10T18:49:32.385Z,21.20
2017-07-10T18:52:01.350Z,19.57
2017-07-10T18:54:30.136Z,19.73
2017-07-10T18:56:59.087Z,20.90
2017-07-10T18:59:27.583Z,20.17
2017-07-10T19:01:56.245Z,20.33
2017-07-10T19:04:25.250Z,19.70
2017-07-10T19:06:54.142Z,20.37
2017-07-10T19:09:22.702Z,20.60
2017-07-10T19:11:51.535Z,19.20
2017-07-10T19:14:19.707Z,21.30
2017-07-10T19:16:48.250Z,20.70
2017-07-10T19:19:17.082Z,20.53
2017-07-10T19:21:45.629Z,20.50
2017-07-10T19:24:14.967Z,20.43
2017-07-10T19:26:43.919Z,20.90
2017-07-10T19:29:13.218Z,20.20
2017-07-10T19:31:41.806Z,18.20
2017-07-10T19:34:10.205Z,19.57
2017-07-10T19:36:38.765Z,18.93
2017-07-10T19:39:08.301Z,19.20
2017-07-10T19:41:36.993Z,20.13
2017-07-10T19:44:05.592Z,20.30
2017-07-10T19:46:33.814Z,20.97
2017-07-10T19:49:03.437Z,19.57
2017-07-10T19:51:32.734Z,19.90
2017-07-10T19:54:00.946Z,18.70
2017-07-10T19:56:30.125Z,22.33
2017-07-10T19:58:58.979Z,20.47
2017-07-10T20:01:27.821Z,20.37
2017-07-10T20:03:56.505Z,21.57
2017-07-10T20:06:25.206Z,22.80
2017-07-10T20:08:53.854Z,21.07
2017-07-10T20:11:23.389Z,24.07
2017-07-10T20:13:52.054Z,20.67
2017-07-10T20:16:20.266Z,21.03
2017-07-10T20:18:49.160Z,21.40
2017-07-10T20:21:17.799Z,22.20
2017-07-10T20:23:47.342Z,22.80
2017-07-10T20:26:16.329Z,23.90
2017-07-10T20:28:45.139Z,22.93
2017-07-10T20:31:14.133Z,22.30
2017-07-10T20:33:43.315Z,21.43
2017-07-10T20:36:11.869Z,22.83
2017-07-10T20:38:41.406Z,21.77
2017-07-10T20:41:10.697Z,21.50
2017-07-10T20:43:39.395Z,22.27
2017-07-10T20:46:08.025Z,22.57
2017-07-10T20:48:36.325Z,21.80
2017-07-10T20:51:05.611Z,21.20
2017-07-10T20:53:34.242Z,23.23
2017-07-10T20:56:03.130Z,24.00
2017-07-10T20:58:31.781Z,23.37
2017-07-10T21:01:01.181Z,22.07
2017-07-10T21:03:30.274Z,22.20
2017-07-10T21:05:59.219Z,22.27
2017-07-10T21:08:28.114Z,21.03
2017-07-10T21:10:57.010Z,21.03
2017-07-10T21:13:25.657Z,21.47
2017-07-10T21:15:55.245Z,21.80
2017-07-10T21:18:23.886Z,20.67
2017-07-10T21:20:52.483Z,23.40
2017-07-10T21:23:20.746Z,22.67
2017-07-10T21:25:49.742Z,20.10
2017-07-10T21:28:18.547Z,22.30
2017-07-10T21:30:47.190Z,21.83
2017-07-10T21:33:16.978Z,22.97
2017-07-10T21:35:45.827Z,23.33
2017-07-10T21:38:14.372Z,21.17
2017-07-10T21:40:44.204Z,21.80
2017-07-10T21:43:13.059Z,21.83
2017-07-10T21:45:41.903Z,24.50
2017-07-10T21:48:10.945Z,21.53
2017-07-10T21:50:39.889Z,20.17
2017-07-10T21:53:08.455Z,22.70
2017-07-10T21:55:37.325Z,23.70
2017-07-10T21:58:05.554Z,20.50
2017-07-10T22:00:34.439Z,23.70
2017-07-10T22:03:03.305Z,22.00
2017-07-10T22:05:31.523Z,21.57
2017-07-10T22:08:00.280Z,24.83
2017-07-10T22:10:29.274Z,22.03
2017-07-10T22:12:58.125Z,21.27
2017-07-10T22:15:26.805Z,21.50
2017-07-10T22:17:55.622Z,20.97
2017-07-10T22:20:25.165Z,22.17
2017-07-10T22:22:53.719Z,23.00
2017-07-10T22:25:23.406Z,20.40
2017-07-10T22:27:52.247Z,20.87
2017-07-10T22:30:21.158Z,21.70
2017-07-10T22:32:49.931Z,21.60
2017-07-10T22:35:18.687Z,21.47
2017-07-10T22:37:48.383Z,22.10
2017-07-10T22:40:17.022Z,21.90
2017-07-10T22:42:45.778Z,21.40
2017-07-10T22:45:14.465Z,20.87
2017-07-10T22:47:43.258Z,22.13
2017-07-10T22:50:11.918Z,20.10
2017-07-10T22:52:40.861Z,22.13
2017-07-10T22:55:09.546Z,19.70
2017-07-10T22:57:37.729Z,20.47
2017-07-10T23:00:06.462Z,22.17
2017-07-10T23:02:35.701Z,19.60
2017-07-10T23:05:04.653Z,20.23
2017-07-10T23:07:32.837Z,21.10
2017-07-10T23:10:01.641Z,20.70
2017-07-10T23:12:30.941Z,20.37
2017-07-10T23:15:00.481Z,18.47
2017-07-10T23:17:29.297Z,21.47
2017-07-10T23:19:57.878Z,19.63
2017-07-10T23:22:30.655Z,20.57
2017-07-10T23:24:59.199Z,21.37
2017-07-10T23:27:27.389Z,21.43
2017-07-10T23:29:56.545Z,20.57
2017-07-10T23:32:25.386Z,20.07
2017-07-10T23:34:53.945Z,20.00
2017-07-10T23:37:23.734Z,21.73
2017-07-10T23:39:52.474Z,19.10
2017-07-10T23:42:21.101Z,20.47
2017-07-10T23:44:49.906Z,20.07
2017-07-10T23:47:18.110Z,19.67
2017-07-10T23:49:47.018Z,21.57
2017-07-10T23:52:16.123Z,21.73
2017-07-10T23:54:45.005Z,21.67
2017-07-10T23:57:14.009Z,21.73
2017-07-10T23:59:43.045Z,21.80
